sensor_id;sensor_type;location;lat;lon;timestamp;pressure;altitude;pressure_sealevel;temperature;humidity
53889;BME280;41337;51.400;-2.342;2022-11-20T00:03:34;100555.63;;;5.94;100.00
53889;BME280;41337;51.400;-2.342;2022-11-20T00:08:36;100536.78;;;5.99;100.00
53889;BME280;41337;51.400;-2.342;2022-11-20T00:14:00;100536.81;;;6.01;100.00
53889;BME280;41337;51.400;-2.342;2022-11-20T00:19:02;100526.47;;;6.02;100.00
53889;BME280;41337;51.400;-2.342;2022-11-20T00:24:03;100513.63;;;6.07;100.00
53889;BME280;41337;51.400;-2.342;2022-11-20T00:29:08;100508.50;;;6.10;100.00
53889;BME280;41337;51.400;-2.342;2022-11-20T00:34:09;100499.81;;;6.05;100.00
53889;BME280;41337;51.400;-2.342;2022-11-20T00:39:10;100485.16;;;6.05;100.00
53889;BME280;41337;51.400;-2.342;2022-11-20T00:44:15;100473.97;;;6.08;100.00
53889;BME280;41337;51.400;-2.342;2022-11-20T00:49:15;100461.06;;;6.10;100.00
53889;BME280;41337;51.400;-2.342;2022-11-20T00:54:16;100445.53;;;6.10;100.00
53889;BME280;41337;51.400;-2.342;2022-11-20T00:59:21;100436.94;;;6.11;100.00
53889;BME280;41337;51.400;-2.342;2022-11-20T01:04:21;100425.81;;;6.15;100.00
53889;BME280;41337;51.400;-2.342;2022-11-20T01:09:22;100415.47;;;6.18;100.00
53889;BME280;41337;51.400;-2.342;2022-11-20T01:14:23;100406.00;;;6.17;100.00
53889;BME280;41337;51.400;-2.342;2022-11-20T01:19:24;100395.69;;;6.18;100.00
53889;BME280;41337;51.400;-2.342;2022-11-20T01:24:28;100381.91;;;6.21;100.00
53889;BME280;41337;51.400;-2.342;2022-11-20T01:29:29;100373.25;;;6.19;100.00
53889;BME280;41337;51.400;-2.342;2022-11-20T01:34:30;100356.91;;;6.20;100.00
53889;BME280;41337;51.400;-2.342;2022-11-20T01:39:30;100350.84;;;6.21;100.00
53889;BME280;41337;51.400;-2.342;2022-11-20T01:44:58;100334.44;;;6.17;100.00
53889;BME280;41337;51.400;-2.342;2022-11-20T01:55:43;100310.28;;;6.17;100.00
53889;BME280;41337;51.400;-2.342;2022-11-20T02:00:47;100304.28;;;6.19;100.00
53889;BME280;41337;51.400;-2.342;2022-11-20T02:06:14;100295.66;;;6.19;100.00
53889;BME280;41337;51.400;-2.342;2022-11-20T02:11:22;100285.38;;;6.25;100.00
53889;BME280;41337;51.400;-2.342;2022-11-20T02:16:36;100280.19;;;6.23;100.00
53889;BME280;41337;51.400;-2.342;2022-11-20T02:21:53;100280.25;;;6.28;100.00
53889;BME280;41337;51.400;-2.342;2022-11-20T02:27:04;100258.69;;;6.31;100.00
53889;BME280;41337;51.400;-2.342;2022-11-20T02:32:16;100251.88;;;6.34;100.00
53889;BME280;41337;51.400;-2.342;2022-11-20T02:37:18;100232.91;;;6.37;100.00
53889;BME280;41337;51.400;-2.342;2022-11-20T02:42:22;100238.13;;;6.41;100.00
53889;BME280;41337;51.400;-2.342;2022-11-20T02:47:23;100224.34;;;6.46;100.00
53889;BME280;41337;51.400;-2.342;2022-11-20T02:52:24;100218.34;;;6.50;100.00
53889;BME280;41337;51.400;-2.342;2022-11-20T02:57:26;100208.91;;;6.55;100.00
53889;BME280;41337;51.400;-2.342;2022-11-20T03:08:52;100195.19;;;6.65;100.00
53889;BME280;41337;51.400;-2.342;2022-11-20T03:13:53;100152.09;;;6.67;100.00
53889;BME280;41337;51.400;-2.342;2022-11-20T03:18:54;100163.38;;;6.78;100.00
53889;BME280;41337;51.400;-2.342;2022-11-20T03:23:55;100175.47;;;6.83;100.00
53889;BME280;41337;51.400;-2.342;2022-11-20T03:29:02;100185.91;;;6.89;100.00
53889;BME280;41337;51.400;-2.342;2022-11-20T03:34:03;100174.63;;;6.82;100.00
53889;BME280;41337;51.400;-2.342;2022-11-20T03:39:04;100156.50;;;6.84;100.00
53889;BME280;41337;51.400;-2.342;2022-11-20T03:44:10;100137.50;;;6.85;100.00
53889;BME280;41337;51.400;-2.342;2022-11-20T03:49:11;100147.06;;;6.92;100.00
53889;BME280;41337;51.400;-2.342;2022-11-20T03:54:12;100145.38;;;6.95;100.00
53889;BME280;41337;51.400;-2.342;2022-11-20T03:59:19;100138.44;;;6.96;100.00
53889;BME280;41337;51.400;-2.342;2022-11-20T04:04:20;100134.97;;;6.92;100.00
53889;BME280;41337;51.400;-2.342;2022-11-20T04:09:20;100131.47;;;6.84;100.00
53889;BME280;41337;51.400;-2.342;2022-11-20T04:14:27;100124.53;;;6.74;100.00
53889;BME280;41337;51.400;-2.342;2022-11-20T04:19:28;100126.19;;;6.67;100.00
53889;BME280;41337;51.400;-2.342;2022-11-20T04:24:29;100129.59;;;6.61;100.00
53889;BME280;41337;51.400;-2.342;2022-11-20T04:29:30;100121.84;;;6.63;100.00
53889;BME280;41337;51.400;-2.342;2022-11-20T04:34:36;100153.84;;;6.73;100.00
53889;BME280;41337;51.400;-2.342;2022-11-20T04:39:37;100154.66;;;6.66;100.00
53889;BME280;41337;51.400;-2.342;2022-11-20T04:44:38;100150.28;;;6.58;100.00
53889;BME280;41337;51.400;-2.342;2022-11-20T04:49:39;100159.72;;;6.52;100.00
53889;BME280;41337;51.400;-2.342;2022-11-20T04:54:46;100157.06;;;6.46;100.00
53889;BME280;41337;51.400;-2.342;2022-11-20T04:59:47;100157.88;;;6.38;100.00
53889;BME280;41337;51.400;-2.342;2022-11-20T05:04:48;100160.38;;;6.26;100.00
53889;BME280;41337;51.400;-2.342;2022-11-20T05:09:48;100179.22;;;6.16;100.00
53889;BME280;41337;51.400;-2.342;2022-11-20T05:14:49;100181.69;;;6.03;100.00
53889;BME280;41337;51.400;-2.342;2022-11-20T05:19:50;100179.91;;;5.99;100.00
53889;BME280;41337;51.400;-2.342;2022-11-20T05:24:51;100175.69;;;6.07;100.00
53889;BME280;41337;51.400;-2.342;2022-11-20T05:29:58;100169.78;;;6.21;100.00
53889;BME280;41337;51.400;-2.342;2022-11-20T05:34:58;100167.28;;;6.29;100.00
53889;BME280;41337;51.400;-2.342;2022-11-20T05:39:59;100171.69;;;6.40;100.00
53889;BME280;41337;51.400;-2.342;2022-11-20T05:45:01;100179.56;;;6.53;100.00
53889;BME280;41337;51.400;-2.342;2022-11-20T05:50:06;100187.41;;;6.59;100.00
53889;BME280;41337;51.400;-2.342;2022-11-20T05:55:08;100189.06;;;6.55;100.00
53889;BME280;41337;51.400;-2.342;2022-11-20T06:00:09;100185.56;;;6.49;100.00
53889;BME280;41337;51.400;-2.342;2022-11-20T06:05:10;100189.00;;;6.45;100.00
53889;BME280;41337;51.400;-2.342;2022-11-20T06:10:11;100199.34;;;6.45;100.00
53889;BME280;41337;51.400;-2.342;2022-11-20T06:15:19;100207.13;;;6.46;100.00
53889;BME280;41337;51.400;-2.342;2022-11-20T06:20:21;100208.00;;;6.48;100.00
53889;BME280;41337;51.400;-2.342;2022-11-20T06:25:28;100205.41;;;6.48;100.00
53889;BME280;41337;51.400;-2.342;2022-11-20T06:30:29;100213.28;;;6.59;100.00
53889;BME280;41337;51.400;-2.342;2022-11-20T06:35:29;100208.13;;;6.62;100.00
53889;BME280;41337;51.400;-2.342;2022-11-20T06:40:30;100221.16;;;6.73;100.00
53889;BME280;41337;51.400;-2.342;2022-11-20T06:45:31;100216.84;;;6.70;100.00
53889;BME280;41337;51.400;-2.342;2022-11-20T06:50:32;100221.97;;;6.67;100.00
53889;BME280;41337;51.400;-2.342;2022-11-20T06:55:33;100247.03;;;6.73;100.00
53889;BME280;41337;51.400;-2.342;2022-11-20T07:00:43;100244.44;;;6.71;100.00
53889;BME280;41337;51.400;-2.342;2022-11-20T07:05:48;100245.31;;;6.73;100.00
53889;BME280;41337;51.400;-2.342;2022-11-20T07:10:48;100247.88;;;6.69;100.00
53889;BME280;41337;51.400;-2.342;2022-11-20T07:15:49;100247.78;;;6.58;100.00
53889;BME280;41337;51.400;-2.342;2022-11-20T07:20:50;100257.16;;;6.47;100.00
53889;BME280;41337;51.400;-2.342;2022-11-20T07:25:51;100252.75;;;6.38;100.00
53889;BME280;41337;51.400;-2.342;2022-11-20T07:30:53;100274.19;;;6.29;100.00
53889;BME280;41337;51.400;-2.342;2022-11-20T07:35:54;100282.75;;;6.20;100.00
53889;BME280;41337;51.400;-2.342;2022-11-20T07:40:55;100273.13;;;6.09;100.00
53889;BME280;41337;51.400;-2.342;2022-11-20T07:46:01;100275.66;;;6.04;100.00
53889;BME280;41337;51.400;-2.342;2022-11-20T07:51:04;100289.38;;;6.00;100.00
53889;BME280;41337;51.400;-2.342;2022-11-20T07:56:05;100294.41;;;5.89;100.00
53889;BME280;41337;51.400;-2.342;2022-11-20T08:01:12;100290.81;;;5.78;100.00
53889;BME280;41337;51.400;-2.342;2022-11-20T08:06:13;100293.28;;;5.72;100.00
53889;BME280;41337;51.400;-2.342;2022-11-20T08:11:15;100298.38;;;5.65;100.00
53889;BME280;41337;51.400;-2.342;2022-11-20T08:16:45;100306.94;;;5.61;100.00
53889;BME280;41337;51.400;-2.342;2022-11-20T08:21:49;100298.28;;;5.58;100.00
53889;BME280;41337;51.400;-2.342;2022-11-20T08:26:50;100310.31;;;5.57;100.00
53889;BME280;41337;51.400;-2.342;2022-11-20T08:31:50;100307.75;;;5.59;100.00
53889;BME280;41337;51.400;-2.342;2022-11-20T08:36:51;100318.13;;;5.60;100.00
53889;BME280;41337;51.400;-2.342;2022-11-20T08:41:52;100326.72;;;5.58;100.00
53889;BME280;41337;51.400;-2.342;2022-11-20T08:46:59;100323.25;;;5.57;100.00
53889;BME280;41337;51.400;-2.342;2022-11-20T08:52:01;100330.91;;;5.51;100.00
53889;BME280;41337;51.400;-2.342;2022-11-20T08:57:01;100324.91;;;5.54;100.00
53889;BME280;41337;51.400;-2.342;2022-11-20T09:02:02;100332.00;;;5.67;100.00
53889;BME280;41337;51.400;-2.342;2022-11-20T09:07:03;100319.38;;;5.87;100.00
53889;BME280;41337;51.400;-2.342;2022-11-20T09:12:04;100328.28;;;6.09;100.00
53889;BME280;41337;51.400;-2.342;2022-11-20T09:17:30;100319.16;;;6.39;100.00
53889;BME280;41337;51.400;-2.342;2022-11-20T09:22:30;100311.75;;;6.73;100.00
53889;BME280;41337;51.400;-2.342;2022-11-20T09:27:31;100309.47;;;7.04;100.00
53889;BME280;41337;51.400;-2.342;2022-11-20T09:32:32;100317.47;;;7.33;100.00
53889;BME280;41337;51.400;-2.342;2022-11-20T09:37:33;100344.56;;;7.75;100.00
53889;BME280;41337;51.400;-2.342;2022-11-20T09:48:20;100354.44;;;8.45;100.00
53889;BME280;41337;51.400;-2.342;2022-11-20T09:58:55;100354.56;;;9.16;100.00
53889;BME280;41337;51.400;-2.342;2022-11-20T10:04:15;100392.72;;;9.44;100.00
53889;BME280;41337;51.400;-2.342;2022-11-20T10:26:11;100413.44;;;10.24;100.00
53889;BME280;41337;51.400;-2.342;2022-11-20T10:36:59;100404.66;;;10.54;100.00
53889;BME280;41337;51.400;-2.342;2022-11-20T10:42:16;100424.56;;;10.72;100.00
53889;BME280;41337;51.400;-2.342;2022-11-20T10:47:18;100420.16;;;10.90;100.00
53889;BME280;41337;51.400;-2.342;2022-11-20T10:52:45;100439.19;;;11.04;100.00
53889;BME280;41337;51.400;-2.342;2022-11-20T10:58:22;100444.25;;;11.26;100.00
53889;BME280;41337;51.400;-2.342;2022-11-20T11:03:30;100451.19;;;11.33;100.00
53889;BME280;41337;51.400;-2.342;2022-11-20T11:08:38;100458.06;;;11.43;100.00
53889;BME280;41337;51.400;-2.342;2022-11-20T11:13:39;100469.28;;;11.56;100.00
53889;BME280;41337;51.400;-2.342;2022-11-20T11:18:40;100465.72;;;11.66;100.00
53889;BME280;41337;51.400;-2.342;2022-11-20T11:23:48;100463.91;;;11.78;100.00
53889;BME280;41337;51.400;-2.342;2022-11-20T11:29:03;100464.78;;;11.72;100.00
53889;BME280;41337;51.400;-2.342;2022-11-20T11:39:12;100452.66;;;11.71;100.00
53889;BME280;41337;51.400;-2.342;2022-11-20T11:44:33;100440.50;;;11.64;100.00
53889;BME280;41337;51.400;-2.342;2022-11-20T12:01:20;100422.41;;;11.42;100.00
53889;BME280;41337;51.400;-2.342;2022-11-20T12:06:23;100423.34;;;11.38;100.00
53889;BME280;41337;51.400;-2.342;2022-11-20T12:17:02;100425.38;;;10.80;100.00
53889;BME280;41337;51.400;-2.342;2022-11-20T12:39:13;100443.03;;;9.61;100.00
53889;BME280;41337;51.400;-2.342;2022-11-20T13:00:53;100369.16;;;10.28;100.00
53889;BME280;41337;51.400;-2.342;2022-11-20T13:16:48;100398.63;;;10.46;100.00
53889;BME280;41337;51.400;-2.342;2022-11-20T13:21:54;100385.66;;;10.20;100.00
53889;BME280;41337;51.400;-2.342;2022-11-20T13:32:16;100396.00;;;10.57;100.00
53889;BME280;41337;51.400;-2.342;2022-11-20T13:42:31;100391.69;;;10.50;100.00
53889;BME280;41337;51.400;-2.342;2022-11-20T13:47:48;100385.59;;;10.54;100.00
53889;BME280;41337;51.400;-2.342;2022-11-20T13:53:13;100368.28;;;10.39;100.00
53889;BME280;41337;51.400;-2.342;2022-11-20T14:03:47;100382.28;;;9.93;100.00
53889;BME280;41337;51.400;-2.342;2022-11-20T14:08:55;100367.59;;;9.60;100.00
53889;BME280;41337;51.400;-2.342;2022-11-20T14:24:23;100365.81;;;8.89;100.00
53889;BME280;41337;51.400;-2.342;2022-11-20T14:29:36;100346.69;;;8.62;100.00
53889;BME280;41337;51.400;-2.342;2022-11-20T14:34:52;100330.28;;;8.65;100.00
53889;BME280;41337;51.400;-2.342;2022-11-20T14:45:26;100318.13;;;8.50;100.00
53889;BME280;41337;51.400;-2.342;2022-11-20T14:50:28;100330.16;;;8.42;100.00
53889;BME280;41337;51.400;-2.342;2022-11-20T14:55:37;100336.25;;;8.44;100.00
53889;BME280;41337;51.400;-2.342;2022-11-20T15:00:38;100351.00;;;8.54;100.00
53889;BME280;41337;51.400;-2.342;2022-11-20T15:05:54;100340.59;;;8.43;100.00
53889;BME280;41337;51.400;-2.342;2022-11-20T15:10:55;100333.69;;;8.47;100.00
53889;BME280;41337;51.400;-2.342;2022-11-20T15:15:58;100339.75;;;8.52;100.00
53889;BME280;41337;51.400;-2.342;2022-11-20T15:21:06;100339.75;;;8.63;100.00
53889;BME280;41337;51.400;-2.342;2022-11-20T15:26:11;100352.81;;;8.95;100.00
53889;BME280;41337;51.400;-2.342;2022-11-20T15:31:16;100364.97;;;9.12;100.00
53889;BME280;41337;51.400;-2.342;2022-11-20T15:36:20;100364.13;;;9.24;100.00
53889;BME280;41337;51.400;-2.342;2022-11-20T15:41:20;100401.38;;;9.36;100.00
53889;BME280;41337;51.400;-2.342;2022-11-20T15:46:30;100403.97;;;9.07;100.00
53889;BME280;41337;51.400;-2.342;2022-11-20T15:51:47;100389.19;;;8.98;100.00
53889;BME280;41337;51.400;-2.342;2022-11-20T15:56:49;100408.25;;;8.91;100.00
53889;BME280;41337;51.400;-2.342;2022-11-20T16:01:53;100413.38;;;8.73;100.00
53889;BME280;41337;51.400;-2.342;2022-11-20T16:06:57;100417.72;;;8.74;100.00
53889;BME280;41337;51.400;-2.342;2022-11-20T16:11:58;100429.75;;;8.50;100.00
53889;BME280;41337;51.400;-2.342;2022-11-20T16:17:05;100446.09;;;8.34;100.00
53889;BME280;41337;51.400;-2.342;2022-11-20T16:22:06;100443.31;;;8.11;100.00
53889;BME280;41337;51.400;-2.342;2022-11-20T16:27:07;100458.81;;;7.95;100.00
53889;BME280;41337;51.400;-2.342;2022-11-20T16:32:08;100464.75;;;7.82;100.00
53889;BME280;41337;51.400;-2.342;2022-11-20T16:37:10;100462.88;;;7.64;100.00
53889;BME280;41337;51.400;-2.342;2022-11-20T16:42:18;100473.19;;;7.58;100.00
53889;BME280;41337;51.400;-2.342;2022-11-20T16:47:19;100479.19;;;7.55;100.00
53889;BME280;41337;51.400;-2.342;2022-11-20T16:52:20;100476.53;;;7.44;100.00
53889;BME280;41337;51.400;-2.342;2022-11-20T16:57:21;100493.69;;;7.33;100.00
53889;BME280;41337;51.400;-2.342;2022-11-20T17:02:25;100494.44;;;7.21;100.00
53889;BME280;41337;51.400;-2.342;2022-11-20T17:07:26;100482.28;;;7.15;100.00
53889;BME280;41337;51.400;-2.342;2022-11-20T17:12:27;100493.38;;;7.05;100.00
53889;BME280;41337;51.400;-2.342;2022-11-20T17:17:28;100495.09;;;7.02;100.00
53889;BME280;41337;51.400;-2.342;2022-11-20T17:22:36;100492.44;;;6.97;100.00
53889;BME280;41337;51.400;-2.342;2022-11-20T17:27:37;100495.00;;;6.95;100.00
53889;BME280;41337;51.400;-2.342;2022-11-20T17:32:38;100492.38;;;6.92;100.00
53889;BME280;41337;51.400;-2.342;2022-11-20T17:37:44;100501.91;;;6.95;100.00
53889;BME280;41337;51.400;-2.342;2022-11-20T17:42:45;100509.69;;;6.96;100.00
53889;BME280;41337;51.400;-2.342;2022-11-20T17:47:46;100529.63;;;7.04;100.00
53889;BME280;41337;51.400;-2.342;2022-11-20T18:18:15;100529.56;;;6.35;100.00
53889;BME280;41337;51.400;-2.342;2022-11-20T18:23:16;100519.78;;;6.15;100.00
53889;BME280;41337;51.400;-2.342;2022-11-20T18:28:17;100524.63;;;5.95;100.00
53889;BME280;41337;51.400;-2.342;2022-11-20T18:33:19;100517.34;;;5.73;100.00
53889;BME280;41337;51.400;-2.342;2022-11-20T18:38:24;100520.44;;;5.53;100.00
53889;BME280;41337;51.400;-2.342;2022-11-20T18:43:25;100527.13;;;5.42;100.00
53889;BME280;41337;51.400;-2.342;2022-11-20T18:48:45;100525.81;;;5.20;100.00
53889;BME280;41337;51.400;-2.342;2022-11-20T18:53:46;100521.94;;;4.96;100.00
53889;BME280;41337;51.400;-2.342;2022-11-20T18:58:46;100506.88;;;4.75;100.00
53889;BME280;41337;51.400;-2.342;2022-11-20T19:03:51;100485.84;;;4.56;100.00
53889;BME280;41337;51.400;-2.342;2022-11-20T19:08:52;100491.25;;;4.69;100.00
53889;BME280;41337;51.400;-2.342;2022-11-20T19:13:53;100470.59;;;4.69;100.00
53889;BME280;41337;51.400;-2.342;2022-11-20T19:18:54;100466.63;;;4.85;100.00
53889;BME280;41337;51.400;-2.342;2022-11-20T19:24:00;100453.47;;;5.15;100.00
53889;BME280;41337;51.400;-2.342;2022-11-20T19:29:03;100461.72;;;5.46;100.00
53889;BME280;41337;51.400;-2.342;2022-11-20T19:34:03;100470.75;;;5.69;100.00
53889;BME280;41337;51.400;-2.342;2022-11-20T19:39:06;100477.84;;;5.81;100.00
53889;BME280;41337;51.400;-2.342;2022-11-20T19:44:13;100485.91;;;6.00;100.00
53889;BME280;41337;51.400;-2.342;2022-11-20T19:49:14;100487.75;;;6.05;100.00
53889;BME280;41337;51.400;-2.342;2022-11-20T19:54:16;100493.84;;;6.11;100.00
53889;BME280;41337;51.400;-2.342;2022-11-20T19:59:20;100497.50;;;6.23;100.00
53889;BME280;41337;51.400;-2.342;2022-11-20T20:04:21;100510.56;;;6.33;100.00
53889;BME280;41337;51.400;-2.342;2022-11-20T20:09:21;100522.53;;;6.28;100.00
53889;BME280;41337;51.400;-2.342;2022-11-20T20:14:23;100530.28;;;6.23;100.00
53889;BME280;41337;51.400;-2.342;2022-11-20T20:19:23;100537.25;;;6.30;100.00
53889;BME280;41337;51.400;-2.342;2022-11-20T20:24:24;100534.84;;;6.41;100.00
53889;BME280;41337;51.400;-2.342;2022-11-20T20:29:25;100553.88;;;6.45;100.00
53889;BME280;41337;51.400;-2.342;2022-11-20T20:34:26;100546.09;;;6.43;100.00
53889;BME280;41337;51.400;-2.342;2022-11-20T20:39:51;100541.56;;;6.30;100.00
53889;BME280;41337;51.400;-2.342;2022-11-20T20:44:52;100533.47;;;6.06;100.00
53889;BME280;41337;51.400;-2.342;2022-11-20T20:50:11;100517.47;;;5.82;100.00
53889;BME280;41337;51.400;-2.342;2022-11-20T20:55:13;100492.16;;;5.61;100.00
53889;BME280;41337;51.400;-2.342;2022-11-20T21:00:17;100472.03;;;5.43;100.00
53889;BME280;41337;51.400;-2.342;2022-11-20T21:05:18;100458.81;;;5.27;100.00
53889;BME280;41337;51.400;-2.342;2022-11-20T21:10:18;100446.59;;;5.17;100.00
53889;BME280;41337;51.400;-2.342;2022-11-20T21:15:19;100458.47;;;5.07;100.00
53889;BME280;41337;51.400;-2.342;2022-11-20T21:20:20;100466.84;;;4.95;100.00
53889;BME280;41337;51.400;-2.342;2022-11-20T21:25:46;100479.47;;;4.82;100.00
53889;BME280;41337;51.400;-2.342;2022-11-20T21:30:47;100475.91;;;4.75;100.00
53889;BME280;41337;51.400;-2.342;2022-11-20T21:35:47;100474.09;;;4.72;100.00
53889;BME280;41337;51.400;-2.342;2022-11-20T21:40:48;100479.19;;;4.68;100.00
53889;BME280;41337;51.400;-2.342;2022-11-20T21:45:49;100468.75;;;4.62;100.00
53889;BME280;41337;51.400;-2.342;2022-11-20T21:50:51;100461.69;;;4.54;100.00
53889;BME280;41337;51.400;-2.342;2022-11-20T21:55:58;100466.69;;;4.45;100.00
53889;BME280;41337;51.400;-2.342;2022-11-20T22:01:07;100463.75;;;4.30;100.00
53889;BME280;41337;51.400;-2.342;2022-11-20T22:06:08;100455.91;;;4.23;100.00
53889;BME280;41337;51.400;-2.342;2022-11-20T22:11:12;100444.53;;;4.15;100.00
53889;BME280;41337;51.400;-2.342;2022-11-20T22:16:17;100422.88;;;4.07;100.00
53889;BME280;41337;51.400;-2.342;2022-11-20T22:21:20;100409.72;;;3.96;100.00
53889;BME280;41337;51.400;-2.342;2022-11-20T22:26:23;100373.53;;;3.92;100.00
53889;BME280;41337;51.400;-2.342;2022-11-20T22:31:28;100393.97;;;3.84;100.00
53889;BME280;41337;51.400;-2.342;2022-11-20T22:36:31;100396.34;;;3.75;100.00
53889;BME280;41337;51.400;-2.342;2022-11-20T22:41:32;100398.63;;;3.62;100.00
53889;BME280;41337;51.400;-2.342;2022-11-20T22:46:37;100394.94;;;3.51;100.00
53889;BME280;41337;51.400;-2.342;2022-11-20T22:51:39;100393.09;;;3.45;100.00
53889;BME280;41337;51.400;-2.342;2022-11-20T22:56:40;100372.34;;;3.39;100.00
53889;BME280;41337;51.400;-2.342;2022-11-20T23:01:42;100361.84;;;3.31;100.00
53889;BME280;41337;51.400;-2.342;2022-11-20T23:06:43;100362.66;;;3.29;100.00
53889;BME280;41337;51.400;-2.342;2022-11-20T23:11:50;100362.50;;;3.23;100.00
53889;BME280;41337;51.400;-2.342;2022-11-20T23:16:51;100374.31;;;3.15;100.00
53889;BME280;41337;51.400;-2.342;2022-11-20T23:21:52;100363.91;;;3.11;100.00
53889;BME280;41337;51.400;-2.342;2022-11-20T23:26:59;100367.19;;;3.04;100.00
53889;BME280;41337;51.400;-2.342;2022-11-20T23:32:00;100354.88;;;2.94;100.00
53889;BME280;41337;51.400;-2.342;2022-11-20T23:37:01;100344.38;;;2.85;100.00
53889;BME280;41337;51.400;-2.342;2022-11-20T23:42:01;100327.03;;;2.78;100.00
53889;BME280;41337;51.400;-2.342;2022-11-20T23:47:02;100307.88;;;2.66;100.00
53889;BME280;41337;51.400;-2.342;2022-11-20T23:52:03;100287.97;;;2.59;100.00
53889;BME280;41337;51.400;-2.342;2022-11-20T23:57:04;100290.34;;;2.51;100.00
